sensor_id;sensor_type;location;lat;lon;timestamp;pressure;altitude;pressure_sealevel;temperature;humidity
58955;BME280;45815;52.334;5.024;2023-11-21T00:01:25;101117.50;;;8.54;100.00
58955;BME280;45815;52.334;5.024;2023-11-21T00:03:50;101118.50;;;8.58;100.00
58955;BME280;45815;52.334;5.024;2023-11-21T00:06:17;101121.16;;;8.59;100.00
58955;BME280;45815;52.334;5.024;2023-11-21T00:08:43;101112.53;;;8.62;100.00
58955;BME280;45815;52.334;5.024;2023-11-21T00:11:08;101118.72;;;8.65;100.00
58955;BME280;45815;52.334;5.024;2023-11-21T00:13:34;101123.28;;;8.71;100.00
58955;BME280;45815;52.334;5.024;2023-11-21T00:16:00;101126.03;;;8.76;100.00
58955;BME280;45815;52.334;5.024;2023-11-21T00:18:25;101126.06;;;8.77;100.00
58955;BME280;45815;52.334;5.024;2023-11-21T00:20:50;101112.81;;;8.71;100.00
58955;BME280;45815;52.334;5.024;2023-11-21T00:23:16;101132.31;;;8.81;100.00
58955;BME280;45815;52.334;5.024;2023-11-21T00:25:41;101131.44;;;8.82;100.00
58955;BME280;45815;52.334;5.024;2023-11-21T00:28:07;101134.91;;;8.81;100.00
58955;BME280;45815;52.334;5.024;2023-11-21T00:30:32;101135.00;;;8.84;100.00
58955;BME280;45815;52.334;5.024;2023-11-21T00:32:58;101128.97;;;8.86;100.00
58955;BME280;45815;52.334;5.024;2023-11-21T00:35:24;101129.97;;;8.90;100.00
58955;BME280;45815;52.334;5.024;2023-11-21T00:37:50;101124.72;;;8.90;100.00
58955;BME280;45815;52.334;5.024;2023-11-21T00:40:15;101123.97;;;8.94;100.00
58955;BME280;45815;52.334;5.024;2023-11-21T00:42:41;101117.69;;;8.87;100.00
58955;BME280;45815;52.334;5.024;2023-11-21T00:45:07;101131.94;;;8.97;100.00
58955;BME280;45815;52.334;5.024;2023-11-21T00:47:33;101135.44;;;8.98;100.00
58955;BME280;45815;52.334;5.024;2023-11-21T00:49:58;101139.03;;;9.01;100.00
58955;BME280;45815;52.334;5.024;2023-11-21T00:52:24;101147.84;;;9.05;100.00
58955;BME280;45815;52.334;5.024;2023-11-21T00:54:51;101133.03;;;9.05;100.00
58955;BME280;45815;52.334;5.024;2023-11-21T00:57:16;101140.06;;;9.06;100.00
58955;BME280;45815;52.334;5.024;2023-11-21T00:59:42;101149.72;;;9.09;100.00
58955;BME280;45815;52.334;5.024;2023-11-21T01:02:07;101151.47;;;9.08;100.00
58955;BME280;45815;52.334;5.024;2023-11-21T01:04:35;101149.75;;;9.11;100.00
58955;BME280;45815;52.334;5.024;2023-11-21T01:07:00;101150.63;;;9.09;100.00
58955;BME280;45815;52.334;5.024;2023-11-21T01:09:26;101152.34;;;9.09;100.00
58955;BME280;45815;52.334;5.024;2023-11-21T01:11:51;101152.38;;;9.11;100.00
58955;BME280;45815;52.334;5.024;2023-11-21T01:14:17;101155.00;;;9.11;100.00
58955;BME280;45815;52.334;5.024;2023-11-21T01:16:43;101161.16;;;9.13;100.00
58955;BME280;45815;52.334;5.024;2023-11-21T01:19:08;101158.56;;;9.13;100.00
58955;BME280;45815;52.334;5.024;2023-11-21T01:21:34;101161.16;;;9.13;100.00
58955;BME280;45815;52.334;5.024;2023-11-21T01:23:59;101169.97;;;9.15;100.00
58955;BME280;45815;52.334;5.024;2023-11-21T01:26:25;101177.03;;;9.17;100.00
58955;BME280;45815;52.334;5.024;2023-11-21T01:28:50;101179.63;;;9.17;100.00
58955;BME280;45815;52.334;5.024;2023-11-21T01:31:16;101182.25;;;9.17;100.00
58955;BME280;45815;52.334;5.024;2023-11-21T01:33:41;101177.03;;;9.17;100.00
58955;BME280;45815;52.334;5.024;2023-11-21T01:36:07;101184.19;;;9.23;100.00
58955;BME280;45815;52.334;5.024;2023-11-21T01:38:32;101193.00;;;9.25;100.00
58955;BME280;45815;52.334;5.024;2023-11-21T01:40:59;101199.13;;;9.27;100.00
58955;BME280;45815;52.334;5.024;2023-11-21T01:43:28;101202.59;;;9.26;100.00
58955;BME280;45815;52.334;5.024;2023-11-21T01:45:55;101197.38;;;9.26;100.00
58955;BME280;45815;52.334;5.024;2023-11-21T01:48:24;101191.25;;;9.25;100.00
58955;BME280;45815;52.334;5.024;2023-11-21T01:50:50;101199.94;;;9.24;100.00
58955;BME280;45815;52.334;5.024;2023-11-21T01:53:16;101196.44;;;9.24;100.00
58955;BME280;45815;52.334;5.024;2023-11-21T01:55:41;101203.50;;;9.26;100.00
58955;BME280;45815;52.334;5.024;2023-11-21T01:58:08;101211.41;;;9.28;100.00
58955;BME280;45815;52.334;5.024;2023-11-21T02:00:33;101210.56;;;9.29;100.00
58955;BME280;45815;52.334;5.024;2023-11-21T02:02:59;101212.34;;;9.30;100.00
58955;BME280;45815;52.334;5.024;2023-11-21T02:05:24;101215.84;;;9.30;100.00
58955;BME280;45815;52.334;5.024;2023-11-21T02:07:51;101214.97;;;9.30;100.00
58955;BME280;45815;52.334;5.024;2023-11-21T02:10:18;101213.31;;;9.34;100.00
58955;BME280;45815;52.334;5.024;2023-11-21T02:12:48;101218.53;;;9.32;100.00
58955;BME280;45815;52.334;5.024;2023-11-21T02:15:16;101209.81;;;9.33;100.00
58955;BME280;45815;52.334;5.024;2023-11-21T02:17:46;101221.16;;;9.34;100.00
58955;BME280;45815;52.334;5.024;2023-11-21T02:20:17;101216.84;;;9.34;100.00
58955;BME280;45815;52.334;5.024;2023-11-21T02:22:51;101215.09;;;9.35;100.00
58955;BME280;45815;52.334;5.024;2023-11-21T02:25:29;101226.53;;;9.37;100.00
58955;BME280;45815;52.334;5.024;2023-11-21T02:27:56;101223.84;;;9.35;100.00
58955;BME280;45815;52.334;5.024;2023-11-21T02:30:22;101236.09;;;9.36;100.00
58955;BME280;45815;52.334;5.024;2023-11-21T02:32:48;101230.84;;;9.36;100.00
58955;BME280;45815;52.334;5.024;2023-11-21T02:35:14;101222.97;;;9.35;100.00
58955;BME280;45815;52.334;5.024;2023-11-21T02:37:41;101220.28;;;9.33;100.00
58955;BME280;45815;52.334;5.024;2023-11-21T02:40:09;101234.47;;;9.40;100.00
58955;BME280;45815;52.334;5.024;2023-11-21T02:42:35;101232.59;;;9.36;100.00
58955;BME280;45815;52.334;5.024;2023-11-21T02:45:00;101229.03;;;9.34;100.00
58955;BME280;45815;52.334;5.024;2023-11-21T02:47:26;101225.53;;;9.33;100.00
58955;BME280;45815;52.334;5.024;2023-11-21T02:49:51;101232.66;;;9.37;100.00
58955;BME280;45815;52.334;5.024;2023-11-21T02:52:18;101232.66;;;9.37;100.00
58955;BME280;45815;52.334;5.024;2023-11-21T02:54:44;101233.59;;;9.39;100.00
58955;BME280;45815;52.334;5.024;2023-11-21T02:57:10;101232.72;;;9.40;100.00
58955;BME280;45815;52.334;5.024;2023-11-21T02:59:35;101227.53;;;9.42;100.00
58955;BME280;45815;52.334;5.024;2023-11-21T03:02:00;101228.44;;;9.42;100.00
58955;BME280;45815;52.334;5.024;2023-11-21T03:04:26;101226.81;;;9.46;100.00
58955;BME280;45815;52.334;5.024;2023-11-21T03:06:52;101228.56;;;9.47;100.00
58955;BME280;45815;52.334;5.024;2023-11-21T03:09:17;101234.69;;;9.47;100.00
58955;BME280;45815;52.334;5.024;2023-11-21T03:11:43;101240.88;;;9.49;100.00
58955;BME280;45815;52.334;5.024;2023-11-21T03:14:08;101235.69;;;9.51;100.00
58955;BME280;45815;52.334;5.024;2023-11-21T03:16:34;101238.31;;;9.52;100.00
58955;BME280;45815;52.334;5.024;2023-11-21T03:18:59;101241.88;;;9.55;100.00
58955;BME280;45815;52.334;5.024;2023-11-21T03:21:25;101249.84;;;9.58;100.00
58955;BME280;45815;52.334;5.024;2023-11-21T03:23:51;101241.09;;;9.57;100.00
58955;BME280;45815;52.334;5.024;2023-11-21T03:26:18;101246.31;;;9.57;100.00
58955;BME280;45815;52.334;5.024;2023-11-21T03:28:43;101251.56;;;9.57;100.00
58955;BME280;45815;52.334;5.024;2023-11-21T03:31:08;101250.69;;;9.57;100.00
58955;BME280;45815;52.334;5.024;2023-11-21T03:33:34;101264.72;;;9.59;100.00
58955;BME280;45815;52.334;5.024;2023-11-21T03:36:00;101259.41;;;9.56;100.00
58955;BME280;45815;52.334;5.024;2023-11-21T03:38:26;101263.03;;;9.61;100.00
58955;BME280;45815;52.334;5.024;2023-11-21T03:40:51;101268.34;;;9.62;100.00
58955;BME280;45815;52.334;5.024;2023-11-21T03:43:17;101270.16;;;9.65;100.00
58955;BME280;45815;52.334;5.024;2023-11-21T03:45:42;101270.09;;;9.63;100.00
58955;BME280;45815;52.334;5.024;2023-11-21T03:48:09;101270.03;;;9.62;100.00
58955;BME280;45815;52.334;5.024;2023-11-21T03:50:37;101270.09;;;9.63;100.00
58955;BME280;45815;52.334;5.024;2023-11-21T03:53:02;101283.22;;;9.63;100.00
58955;BME280;45815;52.334;5.024;2023-11-21T03:55:29;101279.72;;;9.64;100.00
58955;BME280;45815;52.334;5.024;2023-11-21T03:57:56;101288.44;;;9.63;100.00
58955;BME280;45815;52.334;5.024;2023-11-21T04:00:22;101284.00;;;9.61;100.00
58955;BME280;45815;52.334;5.024;2023-11-21T04:02:47;101296.31;;;9.63;100.00
58955;BME280;45815;52.334;5.024;2023-11-21T04:05:13;101298.06;;;9.63;100.00
58955;BME280;45815;52.334;5.024;2023-11-21T04:07:38;101310.50;;;9.70;100.00
58955;BME280;45815;52.334;5.024;2023-11-21T04:10:06;101301.78;;;9.71;100.00
58955;BME280;45815;52.334;5.024;2023-11-21T04:12:34;101315.81;;;9.73;100.00
58955;BME280;45815;52.334;5.024;2023-11-21T04:15:00;101320.25;;;9.74;100.00
58955;BME280;45815;52.334;5.024;2023-11-21T04:17:25;101320.25;;;9.74;100.00
58955;BME280;45815;52.334;5.024;2023-11-21T04:19:50;101321.88;;;9.70;100.00
58955;BME280;45815;52.334;5.024;2023-11-21T04:22:16;101319.38;;;9.75;100.00
58955;BME280;45815;52.334;5.024;2023-11-21T04:24:41;101327.31;;;9.77;100.00
58955;BME280;45815;52.334;5.024;2023-11-21T04:27:06;101329.94;;;9.78;100.00
58955;BME280;45815;52.334;5.024;2023-11-21T04:29:33;101335.19;;;9.78;100.00
58955;BME280;45815;52.334;5.024;2023-11-21T04:31:58;101330.81;;;9.77;100.00
58955;BME280;45815;52.334;5.024;2023-11-21T04:34:23;101340.44;;;9.78;100.00
58955;BME280;45815;52.334;5.024;2023-11-21T04:36:49;101344.84;;;9.79;100.00
58955;BME280;45815;52.334;5.024;2023-11-21T04:39:15;101345.69;;;9.78;100.00
58955;BME280;45815;52.334;5.024;2023-11-21T04:41:40;101334.31;;;9.78;100.00
58955;BME280;45815;52.334;5.024;2023-11-21T04:44:06;101340.56;;;9.81;100.00
58955;BME280;45815;52.334;5.024;2023-11-21T04:46:32;101345.88;;;9.84;100.00
58955;BME280;45815;52.334;5.024;2023-11-21T04:48:58;101338.75;;;9.80;100.00
58955;BME280;45815;52.334;5.024;2023-11-21T04:51:23;101341.50;;;9.83;100.00
58955;BME280;45815;52.334;5.024;2023-11-21T04:53:49;101347.84;;;9.91;100.00
58955;BME280;45815;52.334;5.024;2023-11-21T04:56:14;101361.00;;;9.93;100.00
58955;BME280;45815;52.334;5.024;2023-11-21T04:58:41;101354.69;;;9.86;100.00
58955;BME280;45815;52.334;5.024;2023-11-21T05:01:07;101368.00;;;9.94;100.00
58955;BME280;45815;52.334;5.024;2023-11-21T05:03:33;101363.56;;;9.91;100.00
58955;BME280;45815;52.334;5.024;2023-11-21T05:05:59;101368.91;;;9.94;100.00
58955;BME280;45815;52.334;5.024;2023-11-21T05:08:25;101365.47;;;9.97;100.00
58955;BME280;45815;52.334;5.024;2023-11-21T05:10:51;101367.41;;;10.03;100.00
58955;BME280;45815;52.334;5.024;2023-11-21T05:13:17;101373.63;;;10.06;100.00
58955;BME280;45815;52.334;5.024;2023-11-21T05:15:44;101378.84;;;10.06;100.00
58955;BME280;45815;52.334;5.024;2023-11-21T05:18:09;101384.22;;;10.09;100.00
58955;BME280;45815;52.334;5.024;2023-11-21T05:20:35;101385.16;;;10.11;100.00
58955;BME280;45815;52.334;5.024;2023-11-21T05:23:01;101385.19;;;10.13;100.00
58955;BME280;45815;52.334;5.024;2023-11-21T05:25:26;101387.00;;;10.15;100.00
58955;BME280;45815;52.334;5.024;2023-11-21T05:27:52;101385.38;;;10.19;100.00
58955;BME280;45815;52.334;5.024;2023-11-21T05:30:18;101390.75;;;10.24;100.00
58955;BME280;45815;52.334;5.024;2023-11-21T05:32:44;101394.34;;;10.27;100.00
58955;BME280;45815;52.334;5.024;2023-11-21T05:35:10;101403.19;;;10.29;100.00
58955;BME280;45815;52.334;5.024;2023-11-21T05:37:41;101412.88;;;10.32;100.00
58955;BME280;45815;52.334;5.024;2023-11-21T05:40:08;101402.31;;;10.29;100.00
58955;BME280;45815;52.334;5.024;2023-11-21T05:42:34;101408.53;;;10.32;100.00
58955;BME280;45815;52.334;5.024;2023-11-21T05:45:00;101418.19;;;10.33;100.00
58955;BME280;45815;52.334;5.024;2023-11-21T05:47:42;101404.13;;;10.31;100.00
58955;BME280;45815;52.334;5.024;2023-11-21T05:50:09;101421.75;;;10.37;100.00
58955;BME280;45815;52.334;5.024;2023-11-21T05:52:40;101421.81;;;10.39;100.00
58955;BME280;45815;52.334;5.024;2023-11-21T05:55:06;101429.69;;;10.39;100.00
58955;BME280;45815;52.334;5.024;2023-11-21T05:57:36;101428.81;;;10.38;100.00
58955;BME280;45815;52.334;5.024;2023-11-21T06:00:07;101428.00;;;10.41;100.00
58955;BME280;45815;52.334;5.024;2023-11-21T06:02:39;101431.31;;;10.33;100.00
58955;BME280;45815;52.334;5.024;2023-11-21T06:05:07;101436.75;;;10.40;100.00
58955;BME280;45815;52.334;5.024;2023-11-21T06:07:33;101444.56;;;10.38;100.00
58955;BME280;45815;52.334;5.024;2023-11-21T06:09:58;101446.19;;;10.34;100.00
58955;BME280;45815;52.334;5.024;2023-11-21T06:12:24;101436.19;;;10.23;100.00
58955;BME280;45815;52.334;5.024;2023-11-21T06:14:50;101451.28;;;10.28;100.00
58955;BME280;45815;52.334;5.024;2023-11-21T06:17:16;101461.06;;;10.34;100.00
58955;BME280;45815;52.334;5.024;2023-11-21T06:19:43;101465.47;;;10.35;100.00
58955;BME280;45815;52.334;5.024;2023-11-21T06:22:11;101464.56;;;10.34;100.00
58955;BME280;45815;52.334;5.024;2023-11-21T06:24:36;101464.47;;;10.31;100.00
58955;BME280;45815;52.334;5.024;2023-11-21T06:27:03;101464.47;;;10.31;100.00
58955;BME280;45815;52.334;5.024;2023-11-21T06:29:30;101464.56;;;10.34;100.00
58955;BME280;45815;52.334;5.024;2023-11-21T06:31:55;101474.25;;;10.37;100.00
58955;BME280;45815;52.334;5.024;2023-11-21T06:34:21;101480.41;;;10.38;100.00
58955;BME280;45815;52.334;5.024;2023-11-21T06:36:47;101483.03;;;10.38;100.00
58955;BME280;45815;52.334;5.024;2023-11-21T06:39:12;101483.78;;;10.33;100.00
58955;BME280;45815;52.334;5.024;2023-11-21T06:41:40;101485.47;;;10.31;100.00
58955;BME280;45815;52.334;5.024;2023-11-21T06:44:05;101488.19;;;10.34;100.00
58955;BME280;45815;52.334;5.024;2023-11-21T06:46:31;101485.47;;;10.31;100.00
58955;BME280;45815;52.334;5.024;2023-11-21T06:48:56;101504.91;;;10.38;100.00
58955;BME280;45815;52.334;5.024;2023-11-21T06:51:22;101497.75;;;10.32;100.00
58955;BME280;45815;52.334;5.024;2023-11-21T06:53:47;101508.38;;;10.37;100.00
58955;BME280;45815;52.334;5.024;2023-11-21T06:56:18;101504.84;;;10.37;100.00
58955;BME280;45815;52.334;5.024;2023-11-21T06:58:45;101511.09;;;10.40;100.00
58955;BME280;45815;52.334;5.024;2023-11-21T07:01:11;101525.16;;;10.42;100.00
58955;BME280;45815;52.334;5.024;2023-11-21T07:03:37;101526.84;;;10.40;100.00
58955;BME280;45815;52.334;5.024;2023-11-21T07:06:03;101526.78;;;10.39;100.00
58955;BME280;45815;52.334;5.024;2023-11-21T07:08:28;101530.28;;;10.38;100.00
58955;BME280;45815;52.334;5.024;2023-11-21T07:10:54;101534.59;;;10.35;100.00
58955;BME280;45815;52.334;5.024;2023-11-21T07:13:19;101538.22;;;10.41;100.00
58955;BME280;45815;52.334;5.024;2023-11-21T07:15:44;101543.56;;;10.44;100.00
58955;BME280;45815;52.334;5.024;2023-11-21T07:18:10;101541.84;;;10.44;100.00
58955;BME280;45815;52.334;5.024;2023-11-21T07:20:36;101547.03;;;10.43;100.00
58955;BME280;45815;52.334;5.024;2023-11-21T07:23:02;101536.41;;;10.38;100.00
58955;BME280;45815;52.334;5.024;2023-11-21T07:25:29;101553.25;;;10.45;100.00
58955;BME280;45815;52.334;5.024;2023-11-21T07:27:54;101554.06;;;10.44;100.00
58955;BME280;45815;52.334;5.024;2023-11-21T07:30:20;101553.97;;;10.41;100.00
58955;BME280;45815;52.334;5.024;2023-11-21T07:32:48;101568.25;;;10.49;100.00
58955;BME280;45815;52.334;5.024;2023-11-21T07:35:13;101570.66;;;10.43;100.00
58955;BME280;45815;52.334;5.024;2023-11-21T07:37:38;101585.69;;;10.47;100.00
58955;BME280;45815;52.334;5.024;2023-11-21T07:40:04;101586.56;;;10.47;100.00
58955;BME280;45815;52.334;5.024;2023-11-21T07:42:30;101595.31;;;10.48;100.00
58955;BME280;45815;52.334;5.024;2023-11-21T07:44:55;101594.19;;;10.40;100.00
58955;BME280;45815;52.334;5.024;2023-11-21T07:47:21;101595.97;;;10.41;100.00
58955;BME280;45815;52.334;5.024;2023-11-21T07:49:47;101603.91;;;10.42;100.00
58955;BME280;45815;52.334;5.024;2023-11-21T07:52:13;101606.47;;;10.41;100.00
58955;BME280;45815;52.334;5.024;2023-11-21T07:54:41;101603.91;;;10.42;100.00
58955;BME280;45815;52.334;5.024;2023-11-21T07:57:07;101608.09;;;10.37;100.00
58955;BME280;45815;52.334;5.024;2023-11-21T07:59:32;101614.50;;;10.45;100.00
58955;BME280;45815;52.334;5.024;2023-11-21T08:01:58;101616.31;;;10.48;100.00
58955;BME280;45815;52.334;5.024;2023-11-21T08:04:23;101623.41;;;10.50;100.00
58955;BME280;45815;52.334;5.024;2023-11-21T08:06:48;101626.16;;;10.55;100.00
58955;BME280;45815;52.334;5.024;2023-11-21T08:09:14;101633.25;;;10.57;100.00
58955;BME280;45815;52.334;5.024;2023-11-21T08:11:40;101636.66;;;10.55;100.00
58955;BME280;45815;52.334;5.024;2023-11-21T08:14:06;101635.94;;;10.59;100.00
58955;BME280;45815;52.334;5.024;2023-11-21T08:16:31;101642.66;;;10.51;100.00
58955;BME280;45815;52.334;5.024;2023-11-21T08:18:57;101649.72;;;10.53;100.00
58955;BME280;45815;52.334;5.024;2023-11-21T08:21:22;101657.81;;;10.60;100.00
58955;BME280;45815;52.334;5.024;2023-11-21T08:23:54;101662.19;;;10.59;100.00
58955;BME280;45815;52.334;5.024;2023-11-21T08:26:21;101660.50;;;10.61;100.00
58955;BME280;45815;52.334;5.024;2023-11-21T08:28:47;101671.94;;;10.63;100.00
58955;BME280;45815;52.334;5.024;2023-11-21T08:31:12;101654.31;;;10.59;100.00
58955;BME280;45815;52.334;5.024;2023-11-21T08:33:38;101678.25;;;10.70;100.00
58955;BME280;45815;52.334;5.024;2023-11-21T08:36:08;101676.63;;;10.73;100.00
58955;BME280;45815;52.334;5.024;2023-11-21T08:38:34;101679.34;;;10.76;100.00
58955;BME280;45815;52.334;5.024;2023-11-21T08:41:04;101693.41;;;10.78;100.00
58955;BME280;45815;52.334;5.024;2023-11-21T08:43:35;101694.31;;;10.79;100.00
58955;BME280;45815;52.334;5.024;2023-11-21T08:46:00;101693.41;;;10.77;100.00
58955;BME280;45815;52.334;5.024;2023-11-21T08:48:26;101696.91;;;10.77;100.00
58955;BME280;45815;52.334;5.024;2023-11-21T08:50:53;101702.25;;;10.81;100.00
58955;BME280;45815;52.334;5.024;2023-11-21T08:53:19;101700.47;;;10.80;100.00
58955;BME280;45815;52.334;5.024;2023-11-21T08:55:44;101705.72;;;10.80;100.00
58955;BME280;45815;52.334;5.024;2023-11-21T08:58:10;101706.69;;;10.83;100.00
58955;BME280;45815;52.334;5.024;2023-11-21T09:00:39;101699.56;;;10.79;100.00
58955;BME280;45815;52.334;5.024;2023-11-21T09:03:05;101713.75;;;10.84;100.00
58955;BME280;45815;52.334;5.024;2023-11-21T09:05:34;101726.91;;;10.86;100.00
58955;BME280;45815;52.334;5.024;2023-11-21T09:07:59;101725.22;;;10.88;100.00
58955;BME280;45815;52.334;5.024;2023-11-21T09:10:24;101727.78;;;10.85;100.00
58955;BME280;45815;52.334;5.024;2023-11-21T09:12:50;101727.78;;;10.85;100.00
58955;BME280;45815;52.334;5.024;2023-11-21T09:15:17;101733.91;;;10.85;100.00
58955;BME280;45815;52.334;5.024;2023-11-21T09:17:43;101744.47;;;10.87;100.00
58955;BME280;45815;52.334;5.024;2023-11-21T09:20:10;101744.47;;;10.87;100.00
58955;BME280;45815;52.334;5.024;2023-11-21T09:22:35;101741.00;;;10.88;100.00
58955;BME280;45815;52.334;5.024;2023-11-21T09:25:02;101758.50;;;10.87;100.00
58955;BME280;45815;52.334;5.024;2023-11-21T09:27:31;101756.75;;;10.88;100.00
58955;BME280;45815;52.334;5.024;2023-11-21T09:29:56;101771.56;;;10.86;100.00
58955;BME280;45815;52.334;5.024;2023-11-21T09:32:23;101742.38;;;10.76;100.00
58955;BME280;45815;52.334;5.024;2023-11-21T09:34:49;101772.50;;;10.88;100.00
58955;BME280;45815;52.334;5.024;2023-11-21T09:37:16;101775.19;;;10.89;100.00
58955;BME280;45815;52.334;5.024;2023-11-21T09:39:41;101787.53;;;10.92;100.00
58955;BME280;45815;52.334;5.024;2023-11-21T09:42:13;101796.31;;;10.92;100.00
58955;BME280;45815;52.334;5.024;2023-11-21T09:47:26;101806.91;;;10.95;100.00
58955;BME280;45815;52.334;5.024;2023-11-21T09:49:54;101793.63;;;10.91;100.00
58955;BME280;45815;52.334;5.024;2023-11-21T09:52:25;101813.06;;;10.96;100.00
58955;BME280;45815;52.334;5.024;2023-11-21T09:54:52;101812.16;;;10.95;100.00
58955;BME280;45815;52.334;5.024;2023-11-21T09:57:20;101811.31;;;10.96;100.00
58955;BME280;45815;52.334;5.024;2023-11-21T09:59:46;101813.88;;;10.93;100.00
58955;BME280;45815;52.334;5.024;2023-11-21T10:02:16;101816.66;;;10.98;100.00
58955;BME280;45815;52.334;5.024;2023-11-21T10:04:44;101825.41;;;10.98;100.00
58955;BME280;45815;52.334;5.024;2023-11-21T10:07:11;101828.13;;;11.02;100.00
58955;BME280;45815;52.334;5.024;2023-11-21T10:09:38;101828.06;;;11.00;100.00
58955;BME280;45815;52.334;5.024;2023-11-21T10:12:05;101836.16;;;11.06;100.00
58955;BME280;45815;52.334;5.024;2023-11-21T10:14:34;101850.25;;;11.08;100.00
58955;BME280;45815;52.334;5.024;2023-11-21T10:17:01;101844.19;;;11.11;100.00
58955;BME280;45815;52.334;5.024;2023-11-21T10:19:26;101853.75;;;11.09;100.00
58955;BME280;45815;52.334;5.024;2023-11-21T10:21:52;101847.38;;;11.01;100.00
58955;BME280;45815;52.334;5.024;2023-11-21T10:24:19;101861.56;;;11.07;100.00
58955;BME280;45815;52.334;5.024;2023-11-21T10:26:45;101871.34;;;11.11;100.00
58955;BME280;45815;52.334;5.024;2023-11-21T10:29:14;101867.91;;;11.12;100.00
58955;BME280;45815;52.334;5.024;2023-11-21T10:31:42;101876.63;;;11.11;100.00
58955;BME280;45815;52.334;5.024;2023-11-21T10:34:25;101874.53;;;11.01;100.00
58955;BME280;45815;52.334;5.024;2023-11-21T10:36:53;101875.41;;;11.02;100.00
58955;BME280;45815;52.334;5.024;2023-11-21T10:39:21;101886.94;;;11.05;100.00
58955;BME280;45815;52.334;5.024;2023-11-21T10:41:49;101889.72;;;11.10;100.00
58955;BME280;45815;52.334;5.024;2023-11-21T10:44:19;101883.66;;;11.12;100.00
58955;BME280;45815;52.334;5.024;2023-11-21T10:46:54;101889.81;;;11.13;100.00
58955;BME280;45815;52.334;5.024;2023-11-21T10:49:24;101894.91;;;11.08;100.00
58955;BME280;45815;52.334;5.024;2023-11-21T10:51:50;101902.56;;;11.02;100.00
58955;BME280;45815;52.334;5.024;2023-11-21T10:54:22;101910.13;;;10.93;100.00
58955;BME280;45815;52.334;5.024;2023-11-21T10:56:56;101909.88;;;10.85;100.00
58955;BME280;45815;52.334;5.024;2023-11-21T10:59:22;101915.28;;;10.90;100.00
58955;BME280;45815;52.334;5.024;2023-11-21T11:01:50;101917.13;;;10.92;100.00
58955;BME280;45815;52.334;5.024;2023-11-21T11:04:18;101916.25;;;10.92;100.00
58955;BME280;45815;52.334;5.024;2023-11-21T11:06:59;101915.34;;;10.91;100.00
58955;BME280;45815;52.334;5.024;2023-11-21T11:09:27;101917.13;;;10.92;100.00
58955;BME280;45815;52.334;5.024;2023-11-21T11:11:52;101905.63;;;10.89;100.00
58955;BME280;45815;52.334;5.024;2023-11-21T11:14:19;101924.13;;;10.92;100.00
58955;BME280;45815;52.334;5.024;2023-11-21T11:16:45;101932.88;;;10.92;100.00
58955;BME280;45815;52.334;5.024;2023-11-21T11:19:10;101931.06;;;10.90;100.00
58955;BME280;45815;52.334;5.024;2023-11-21T11:21:47;101926.53;;;10.86;100.00
58955;BME280;45815;52.334;5.024;2023-11-21T11:35:24;101939.50;;;10.81;100.00
58955;BME280;45815;52.334;5.024;2023-11-21T11:37:52;101944.88;;;10.84;100.00
58955;BME280;45815;52.334;5.024;2023-11-21T11:40:18;101941.28;;;10.82;100.00
58955;BME280;45815;52.334;5.024;2023-11-21T11:43:01;101939.16;;;10.72;100.00
58955;BME280;45815;52.334;5.024;2023-11-21T11:45:34;101926.88;;;10.71;100.00
58955;BME280;45815;52.334;5.024;2023-11-21T11:48:01;101946.41;;;10.79;100.00
58955;BME280;45815;52.334;5.024;2023-11-21T11:50:27;101937.72;;;10.80;100.00
58955;BME280;45815;52.334;5.024;2023-11-21T11:52:53;101939.50;;;10.81;100.00
58955;BME280;45815;52.334;5.024;2023-11-21T11:55:21;101943.84;;;10.81;100.00
58955;BME280;45815;52.334;5.024;2023-11-21T11:57:56;101953.38;;;10.77;100.00
58955;BME280;45815;52.334;5.024;2023-11-21T12:02:53;101950.59;;;10.72;100.00
58955;BME280;45815;52.334;5.024;2023-11-21T12:05:21;101948.78;;;10.71;100.00
58955;BME280;45815;52.334;5.024;2023-11-21T12:07:50;101958.41;;;10.71;100.00
58955;BME280;45815;52.334;5.024;2023-11-21T12:10:22;101955.69;;;10.69;100.00
58955;BME280;45815;52.334;5.024;2023-11-21T12:12:51;101959.19;;;10.68;100.00
58955;BME280;45815;52.334;5.024;2023-11-21T12:15:20;101963.53;;;10.68;100.00
58955;BME280;45815;52.334;5.024;2023-11-21T12:17:47;101961.84;;;10.70;100.00
58955;BME280;45815;52.334;5.024;2023-11-21T12:20:13;101964.44;;;10.68;100.00
58955;BME280;45815;52.334;5.024;2023-11-21T12:22:48;101975.03;;;10.71;100.00
58955;BME280;45815;52.334;5.024;2023-11-21T12:25:15;101971.44;;;10.69;100.00
58955;BME280;45815;52.334;5.024;2023-11-21T12:27:48;101970.41;;;10.64;100.00
58955;BME280;45815;52.334;5.024;2023-11-21T12:30:19;101976.59;;;10.66;100.00
58955;BME280;45815;52.334;5.024;2023-11-21T12:32:47;101978.34;;;10.66;100.00
58955;BME280;45815;52.334;5.024;2023-11-21T12:35:13;101979.22;;;10.66;100.00
58955;BME280;45815;52.334;5.024;2023-11-21T12:37:40;101980.91;;;10.64;100.00
58955;BME280;45815;52.334;5.024;2023-11-21T12:40:07;101993.06;;;10.62;100.00
58955;BME280;45815;52.334;5.024;2023-11-21T12:42:47;101995.69;;;10.62;100.00
58955;BME280;45815;52.334;5.024;2023-11-21T12:48:11;101998.38;;;10.64;100.00
58955;BME280;45815;52.334;5.024;2023-11-21T12:50:38;102007.44;;;10.72;100.00
58955;BME280;45815;52.334;5.024;2023-11-21T12:53:05;102006.53;;;10.71;100.00
58955;BME280;45815;52.334;5.024;2023-11-21T12:55:32;102012.75;;;10.73;100.00
58955;BME280;45815;52.334;5.024;2023-11-21T12:58:01;102019.19;;;10.82;100.00
58955;BME280;45815;52.334;5.024;2023-11-21T13:00:35;102021.06;;;10.86;100.00